logo
Rechercher aéroport 
image banner adimage banner adimage banner ad
image banner ad

9CA5 - California Mart

Situé à Los Angeles, United States

ICAO - 9CA5, IATA -

Données fournies par Airmate  

Information générale

Coordonnées: N34°2'25" W118°15'22"
Élévation : 434 feet MSL.
Variation magnétique : 14° East
Voir autres Aéroports à California

Données opérationnelles

Special qualification required
Heure actuelle UTC:
Heure actuelle locale:
METAR: KHHR 011553Z 12005KT 10SM OVC022 20/14 A2989 RMK AO2 SLP122 T02000139 $
Voir NOTAMs / SUP AIP / TFR affectant cet aéroport [VIEW]
Fréquences de communication: [VIEW]

Pistes:

Coordonnées de l'aéroport

Adresse: Los Angeles United States

Vue satellite de 9CA5